Map

Track Data

SID SEASON NUMBER BASIN SUBBASIN NAME ISO_TIME NATURE LAT LON WMO_WIND WMO_PRES WMO_AGENCY TRACK_TYPE DIST2LAND LANDFALL IFLAG USA_AGENCY USA_ATCF_ID USA_LAT USA_LON USA_RECORD USA_STATUS USA_WIND USA_PRES USA_SSHS USA_R34_NE USA_R34_SE USA_R34_SW USA_R34_NW USA_R50_NE USA_R50_SE USA_R50_SW USA_R50_NW USA_R64_NE USA_R64_SE USA_R64_SW USA_R64_NW USA_POCI USA_ROCI USA_RMW USA_EYE TOKYO_LAT TOKYO_LON TOKYO_GRADE TOKYO_WIND TOKYO_PRES TOKYO_R50_DIR TOKYO_R50_LONG TOKYO_R50_SHORT TOKYO_R30_DIR TOKYO_R30_LONG TOKYO_R30_SHORT TOKYO_LAND CMA_LAT CMA_LON CMA_CAT CMA_WIND CMA_PRES HKO_LAT HKO_LON HKO_CAT HKO_WIND HKO_PRES NEWDELHI_LAT NEWDELHI_LON NEWDELHI_GRADE NEWDELHI_WIND NEWDELHI_PRES NEWDELHI_CI NEWDELHI_DP NEWDELHI_POCI REUNION_LAT REUNION_LON REUNION_TYPE REUNION_WIND REUNION_PRES REUNION_TNUM REUNION_CI REUNION_RMW REUNION_R34_NE REUNION_R34_SE REUNION_R34_SW REUNION_R34_NW REUNION_R50_NE REUNION_R50_SE REUNION_R50_SW REUNION_R50_NW REUNION_R64_NE REUNION_R64_SE REUNION_R64_SW REUNION_R64_NW BOM_LAT BOM_LON BOM_TYPE BOM_WIND BOM_PRES BOM_TNUM BOM_CI BOM_RMW BOM_R34_NE BOM_R34_SE BOM_R34_SW BOM_R34_NW BOM_R50_NE BOM_R50_SE BOM_R50_SW BOM_R50_NW BOM_R64_NE BOM_R64_SE BOM_R64_SW BOM_R64_NW BOM_ROCI BOM_POCI BOM_EYE BOM_POS_METHOD BOM_PRES_METHOD NADI_LAT NADI_LON NADI_CAT NADI_WIND NADI_PRES WELLINGTON_LAT WELLINGTON_LON WELLINGTON_WIND WELLINGTON_PRES DS824_LAT DS824_LON DS824_STAGE DS824_WIND DS824_PRES TD9636_LAT TD9636_LON TD9636_STAGE TD9636_WIND TD9636_PRES TD9635_LAT TD9635_LON TD9635_WIND TD9635_PRES TD9635_ROCI NEUMANN_LAT NEUMANN_LON NEUMANN_CLASS NEUMANN_WIND NEUMANN_PRES MLC_LAT MLC_LON MLC_CLASS MLC_WIND MLC_PRES USA_GUST BOM_GUST BOM_GUST_PER REUNION_GUST REUNION_GUST_PER USA_SEAHGT USA_SEARAD_NE USA_SEARAD_SE USA_SEARAD_SW USA_SEARAD_NW STORM_SPEED STORM_DIR
1994211N12152 1994 58 WP MM DOUG 1994-07-30 00:00:00 NR 12.0000 151.700 main 1649 1646 O_____________ jtwc_wp WP171994 12.0000 151.700 15 -1 7 296
1994211N12152 1994 58 WP MM DOUG 1994-07-30 03:00:00 NR 12.1476 151.398 main 1651 1651 P_____________ WP171994 12.1476 151.398 15 -1 7 297
1994211N12152 1994 58 WP MM DOUG 1994-07-30 06:00:00 NR 12.3000 151.100 main 1664 1661 O_____________ jtwc_wp WP171994 12.3000 151.100 15 -1 7 298
1994211N12152 1994 58 WP MM DOUG 1994-07-30 09:00:00 NR 12.4574 150.807 main 1678 1673 P_____________ WP171994 12.4574 150.807 15 -1 7 297
1994211N12152 1994 58 WP MM DOUG 1994-07-30 12:00:00 NR 12.6000 150.500 main 1682 1680 O_____________ jtwc_wp WP171994 12.6000 150.500 15 -1 7 292
1994211N12152 1994 58 WP MM DOUG 1994-07-30 15:00:00 NR 12.7075 150.157 main 1686 1682 P_____________ WP171994 12.7075 150.157 15 -1 7 286
1994211N12152 1994 58 WP MM DOUG 1994-07-30 18:00:00 NR 12.8000 149.800 main 1690 1686 O_____________ jtwc_wp WP171994 12.8000 149.800 15 -1 7 286
1994211N12152 1994 58 WP MM DOUG 1994-07-30 21:00:00 NR 12.9000 149.450 main 1695 1693 P_____________ WP171994 12.9000 149.450 15 -1 7 286
1994211N12152 1994 58 WP MM DOUG 1994-07-31 00:00:00 NR 13.0000 149.100 main 1702 1699 O_____________ jtwc_wp WP171994 13.0000 149.100 15 -1 7 286
1994211N12152 1994 58 WP MM DOUG 1994-07-31 03:00:00 NR 13.1000 148.750 main 1709 1708 P_____________ WP171994 13.1000 148.750 15 -1 7 286
1994211N12152 1994 58 WP MM DOUG 1994-07-31 06:00:00 NR 13.2000 148.400 main 1717 1716 O_____________ jtwc_wp WP171994 13.2000 148.400 15 -1 7 286
1994211N12152 1994 58 WP MM DOUG 1994-07-31 09:00:00 NR 13.2924 148.057 main 1727 1726 P_____________ WP171994 13.2924 148.057 15 -1 7 286
1994211N12152 1994 58 WP MM DOUG 1994-07-31 12:00:00 NR 13.4000 147.700 main 1736 1736 O_____________ jtwc_wp WP171994 13.4000 147.700 15 -1 8 289
1994211N12152 1994 58 WP MM DOUG 1994-07-31 15:00:00 NR 13.5424 147.315 main 1747 1747 P_____________ WP171994 13.5424 147.315 15 -1 8 291
1994211N12152 1994 58 WP MM DOUG 1994-07-31 18:00:00 NR 13.7000 146.900 main 1770 1770 O_____________ jtwc_wp WP171994 13.7000 146.900 15 -1 9 290
1994211N12152 1994 58 WP MM DOUG 1994-07-31 21:00:00 NR 13.8500 146.457 main 1781 1781 P_____________ WP171994 13.8500 146.457 15 -1 9 289
1994211N12152 1994 58 WP MM DOUG 1994-08-01 00:00:00 NR 14.0000 146.000 main 1804 1804 O_____________ jtwc_wp WP171994 14.0000 146.000 15 -1 9 289
1994211N12152 1994 58 WP MM DOUG 1994-08-01 03:00:00 NR 14.1499 145.550 main 1818 1818 P_____________ WP171994 14.1499 145.550 15 -1 13 293
1994211N12152 1994 58 WP MM DOUG 1994-08-01 06:00:00 TS 14.5333 144.733 1006 tokyo main 1871 1871 OOO___________ jtwc_wp WP171994 14.3000 145.100 15 -1 15.0000 144.000 2 1006 0 0 0 15.0000 144.000 1 23 1006 14 291
1994211N12152 1994 58 WP MM DOUG 1994-08-01 09:00:00 TS 14.6674 144.189 main 1900 1900 PPP___________ WP171994 14.4499 144.657 15 -1 14.8850 143.720 2 1007 0 0 14.8850 143.720 1 23 1006 10 281
1994211N12152 1994 58 WP MM DOUG 1994-08-01 12:00:00 TS 14.7200 143.720 1008 tokyo main 1909 1909 OOO___________ jtwc_wp WP171994 14.6000 144.200 15 -1 14.8000 143.400 2 1008 0 0 0 14.8000 143.400 1 23 1006 9 276
1994211N12152 1994 58 WP MM DOUG 1994-08-01 15:00:00 TS 14.7658 143.243 main 1918 1891 PPP___________ WP171994 14.7575 143.700 17 -1 14.7700 143.015 2 1007 0 0 14.7700 143.015 1 23 1006 9 277
1994211N12152 1994 58 WP MM DOUG 1994-08-01 18:00:00 TS 14.8333 142.800 1006 tokyo main 1891 1851 OOO___________ jtwc_wp WP171994 14.9000 143.200 20 -1 14.8000 142.600 2 1006 0 0 0 14.8000 142.600 1 23 1006 9 281
1994211N12152 1994 58 WP MM DOUG 1994-08-01 21:00:00 TS 14.9283 142.368 main 1851 1811 PPP___________ WP171994 15.0149 142.735 20 -1 14.8850 142.185 2 1005 0 0 14.8850 142.185 1 26 1005 8 284
1994211N12152 1994 58 WP MM DOUG 1994-08-02 00:00:00 TS 15.0333 141.967 1004 tokyo main 1811 1770 OOO___________ jtwc_wp WP171994 15.1000 142.300 20 -1 15.0000 141.800 2 1004 0 0 0 15.0000 141.800 1 29 1004 8 285
1994211N12152 1994 58 WP MM DOUG 1994-08-02 03:00:00 TS 15.1191 141.618 main 1770 1740 PPP___________ WP171994 15.1574 141.885 22 -1 15.0999 141.485 2 1004 0 0 15.0999 141.485 1 29 1004 7 285
1994211N12152 1994 58 WP MM DOUG 1994-08-02 06:00:00 TS 15.2000 141.300 1004 tokyo main 1740 1710 OOO___________ jtwc_wp WP171994 15.2000 141.500 25 -1 15.2000 141.200 2 1004 0 0 0 15.2000 141.200 1 29 1004 6 286
1994211N12152 1994 58 WP MM DOUG 1994-08-02 09:00:00 TS 15.2933 140.978 main 1710 1680 PPP___________ WP171994 15.2499 141.135 27 -1 15.3150 140.900 2 1003 0 0 15.3150 140.900 1 29 1002 6 286
1994211N12152 1994 58 WP MM DOUG 1994-08-02 12:00:00 TS 15.3769 140.662 1002 tokyo main 1680 1648 OOOO__________ jtwc_wp WP171994 15.3000 140.800 30 -1 15.4000 140.600 2 1002 0 0 0 15.4000 140.600 1 29 1000 15.5000 140.600 TD 30 1000 6 281
1994211N12152 1994 58 WP MM DOUG 1994-08-02 15:00:00 TS 15.4107 140.355 main 1648 1617 PPPP__________ WP171994 15.3574 140.500 32 -1 15.4150 140.285 2 1001 0 0 15.4150 140.285 1 29 1000 15.5001 140.348 TD 32 999 6 274
1994211N12152 1994 58 WP MM DOUG 1994-08-02 18:00:00 TS 15.4200 140.073 35 1000 tokyo main 1617 1585 OOOO__________ jtwc_wp WP171994 15.4000 140.200 35 0 15.4000 140.000 3 35 1000 0 9 60 60 0 15.4000 140.000 1 29 1000 15.5000 140.100 TS 35 998 5 272
1994211N12152 1994 58 WP MM DOUG 1994-08-02 21:00:00 TS 15.4287 139.829 main 1585 1564 PPPP__________ WP171994 15.4150 139.858 37 -1 15.3999 139.785 3 37 998 0 9 80 80 15.3998 139.815 1 33 998 15.4999 139.858 TS 37 996 5 271
1994211N12152 1994 58 WP MM DOUG 1994-08-03 00:00:00 TS 15.4250 139.575 40 996 tokyo main 1564 1533 OOOO__________ jtwc_wp WP171994 15.4000 139.500 40 0 15.4000 139.600 3 40 996 0 9 100 100 0 15.4000 139.600 2 38 996 15.5000 139.600 TS 40 994 5 269
1994211N12152 1994 58 WP MM DOUG 1994-08-03 03:00:00 TS 15.4162 139.279 main 1533 1501 PPPP__________ WP171994 15.3574 139.157 42 -1 15.3999 139.430 3 42 993 0 9 110 110 15.4001 139.215 2 38 993 15.5075 139.315 TS 42 992 6 268
1994211N12152 1994 58 WP MM DOUG 1994-08-03 06:00:00 TS 15.4000 138.950 45 990 tokyo main 1501 1459 OOOO__________ jtwc_wp WP171994 15.3000 138.800 45 0 15.4000 139.200 3 45 990 0 9 120 120 0 15.4000 138.800 2 38 990 15.5000 139.000 TS 45 990 7 266
1994211N12152 1994 58 WP MM DOUG 1994-08-03 09:00:00 TS 15.3731 138.601 main 1459 1417 PPPP__________ WP171994 15.2499 138.415 50 -1 15.3926 138.830 3 47 987 0 9 130 130 15.3924 138.492 2 43 987 15.4574 138.665 TS 47 987 7 266
1994211N12152 1994 58 WP MM DOUG 1994-08-03 12:00:00 TS 15.3500 138.225 50 985 tokyo main 1417 1386 OOOO__________ jtwc_wp WP171994 15.2000 138.000 55 0 15.4000 138.400 4 50 985 0 9 140 140 0 15.4000 138.200 3 48 985 15.4000 138.300 STS 50 985 7 269
1994211N12152 1994 58 WP MM DOUG 1994-08-03 15:00:00 TS 15.3554 137.863 main 1386 1344 PPPP__________ WP171994 15.1500 137.558 60 -1 15.4571 138.053 4 52 982 0 9 150 150 15.4571 137.910 3 53 982 15.3573 137.930 STS 52 982 8 270
1994211N12152 1994 58 WP MM DOUG 1994-08-03 18:00:00 TS 15.3500 137.425 55 980 tokyo main 1334 1279 OOOO__________ jtwc_wp WP171994 15.1000 137.100 65 1 15.5000 137.600 4 55 980 9 30 30 9 160 160 0 15.5000 137.500 3 58 980 15.3000 137.500 STS 55 980 10 267
1994211N12152 1994 58 WP MM DOUG 1994-08-03 21:00:00 TS 15.2971 136.829 main 1269 1204 PPPP__________ WP171994 15.0424 136.657 70 -1 15.4730 136.865 4 57 977 9 40 40 9 200 170 15.4804 136.822 3 58 980 15.1925 136.972 STS 57 977 12 264
1994211N12152 1994 58 WP MM DOUG 1994-08-04 00:00:00 TS 15.2250 136.200 60 975 tokyo main 1204 1152 OOOO__________ jtwc_wp WP171994 15.0000 136.200 75 1 15.4000 136.100 4 60 975 9 50 50 4 240 180 0 15.4000 136.100 3 58 980 15.1000 136.400 STS 60 975 11 263
1994211N12152 1994 58 WP MM DOUG 1994-08-04 03:00:00 TS 15.1585 135.678 main 1152 1097 PPPP__________ WP171994 14.9924 135.708 80 -1 15.3070 135.570 4 62 972 9 60 60 4 240 180 15.2496 135.585 3 63 975 15.0849 135.850 STS 62 972 10 263
1994211N12152 1994 58 WP MM DOUG 1994-08-04 06:00:00 TS 15.1000 135.175 65 970 tokyo main 1097 1042 OOOO__________ jtwc_wp WP171994 15.0000 135.200 85 2 15.2000 135.100 5 65 970 9 70 70 4 240 180 0 15.1000 135.100 4 68 970 15.1000 135.300 T 65 970 10 264
1994211N12152 1994 58 WP MM DOUG 1994-08-04 09:00:00 TS 15.0475 134.619 main 1032 981 PPPP__________ WP171994 14.9924 134.700 90 -1 15.0775 134.542 5 70 965 9 75 75 4 240 180 15.0202 134.485 4 68 970 15.0999 134.750 T 67 967 11 266
1994211N12152 1994 58 WP MM DOUG 1994-08-04 12:00:00 TS 15.0250 134.075 75 960 tokyo main 981 930 OOOO__________ jtwc_wp WP171994 15.0000 134.200 95 2 15.0000 134.000 5 75 960 9 80 80 4 240 180 0 15.0000 133.900 4 68 970 15.1000 134.200 T 70 965 10 270
1994211N12152 1994 58 WP MM DOUG 1994-08-04 15:00:00 TS 15.0417 133.596 main 930 893 PPPP__________ WP171994 15.0348 133.707 100 -1 15.0198 133.543 5 77 957 9 85 85 4 255 195 15.0272 133.485 4 72 965 15.0849 133.650 T 72 962 9 275
1994211N12152 1994 58 WP MM DOUG 1994-08-04 18:00:00 TS 15.1000 133.125 80 955 tokyo main 883 837 OOOO__________ jtwc_wp WP171994 15.1000 133.200 105 3 15.1000 133.100 5 80 955 9 90 90 4 270 210 0 15.1000 133.100 4 77 960 15.1000 133.100 T 75 960 10 278
1994211N12152 1994 58 WP MM DOUG 1994-08-04 21:00:00 TS 15.1718 132.609 main 837 793 PPPP__________ WP171994 15.1774 132.665 110 -1 15.1699 132.615 5 82 952 9 95 95 4 270 210 15.1700 132.615 4 82 957 15.1699 132.542 T 80 955 10 281
1994211N12152 1994 58 WP MM DOUG 1994-08-05 00:00:00 TS 15.3000 132.075 85 950 tokyo main 793 755 OOOO__________ jtwc_wp WP171994 15.3000 132.100 115 4 15.3000 132.100 5 85 950 9 100 100 4 270 210 0 15.3000 132.100 5 87 955 15.3000 132.000 ST 85 950 11 288
1994211N12152 1994 58 WP MM DOUG 1994-08-05 03:00:00 TS 15.5023 131.556 main 755 711 PPPP__________ WP171994 15.4774 131.507 120 -1 15.5273 131.572 5 87 947 9 105 105 4 285 225 15.5272 131.630 5 92 950 15.4772 131.515 ST 87 947 11 293
1994211N12152 1994 58 WP MM DOUG 1994-08-05 06:00:00 TS 15.7500 131.000 90 945 tokyo main 717 678 OOOO__________ jtwc_wp WP171994 15.7000 130.900 125 4 15.8000 131.000 5 90 945 9 110 110 4 300 240 0 15.8000 131.100 5 97 945 15.7000 131.000 ST 90 945 12 293
1994211N12152 1994 58 WP MM DOUG 1994-08-05 09:00:00 TS 15.9869 130.363 main 678 624 PPPP__________ WP171994 15.9348 130.300 127 -1 16.0424 130.365 5 92 940 9 115 115 4 300 240 16.0351 130.422 5 97 942 15.9351 130.365 ST 95 940 13 292
1994211N12152 1994 58 WP MM DOUG 1994-08-05 12:00:00 TS 16.2500 129.700 95 935 tokyo main 629 582 OOOO__________ jtwc_wp WP171994 16.2000 129.700 130 4 16.3000 129.700 5 95 935 9 120 120 4 300 240 0 16.3000 129.700 5 97 940 16.2000 129.700 SuperT 100 935 14 294
1994211N12152 1994 58 WP MM DOUG 1994-08-05 15:00:00 TS 16.5530 129.062 main 587 546 PPPP__________ WP171994 16.4849 129.092 135 -1 16.5924 129.035 5 95 932 9 125 125 4 325 255 16.6499 129.028 5 97 937 16.4848 129.092 SuperT 102 930 14 298
1994211N12152 1994 58 WP MM DOUG 1994-08-05 18:00:00 TS 16.8750 128.450 95 930 tokyo main 553 518 OOOO__________ jtwc_wp WP171994 16.8000 128.500 XX 140 -5 16.9000 128.400 5 95 930 9 130 130 4 350 270 0 17.0000 128.400 5 97 935 16.8000 128.500 SuperT 105 925 13 299
1994211N12152 1994 58 WP MM DOUG 1994-08-05 21:00:00 TS 17.1817 127.870 main 526 504 PPPP__________ WP171994 17.1423 127.935 XX 140 -5 17.1923 127.827 5 97 927 9 135 135 4 350 270 17.2498 127.827 5 97 935 17.1424 127.892 SuperT 102 930 12 300
1994211N12152 1994 58 WP MM DOUG 1994-08-06 00:00:00 TS 17.5000 127.325 100 925 tokyo main 506 465 OOOO__________ jtwc_wp WP171994 17.5000 127.400 XX 140 -5 17.5000 127.300 5 100 925 9 140 140 4 350 270 0 17.5000 127.300 5 97 935 17.5000 127.300 SuperT 100 935 12 302
1994211N12152 1994 58 WP MM DOUG 1994-08-06 03:00:00 TS 17.8311 126.795 main 465 422 PPPP__________ WP171994 17.8423 126.892 XX 140 -5 17.8274 126.785 5 100 925 9 140 140 4 350 270 17.8199 126.777 5 97 935 17.8349 126.727 SuperT 100 935 12 306
1994211N12152 1994 58 WP MM DOUG 1994-08-06 06:00:00 TS 18.2000 126.300 100 925 tokyo main 422 379 OOOO__________ jtwc_wp WP171994 18.2000 126.400 XX 140 -5 18.2000 126.300 5 100 925 9 140 140 4 350 270 0 18.2000 126.300 5 97 935 18.2000 126.200 SuperT 100 935 12 311
1994211N12152 1994 58 WP MM DOUG 1994-08-06 09:00:00 TS 18.6224 125.837 main 369 333 PPPP__________ WP171994 18.5775 125.885 XX 140 -5 18.6348 125.842 5 100 925 9 140 140 4 350 270 18.6423 125.892 5 97 935 18.6348 125.727 SuperT 100 935 12 316
1994211N12152 1994 58 WP MM DOUG 1994-08-06 12:00:00 TS 19.0750 125.400 100 925 tokyo main 335 305 OOOO__________ jtwc_wp WP171994 19.0000 125.400 XX 140 -5 19.1000 125.400 5 100 925 9 140 140 4 350 270 0 19.1000 125.500 5 97 935 19.1000 125.300 SuperT 100 935 12 317
1994211N12152 1994 58 WP MM DOUG 1994-08-06 15:00:00 TS 19.5174 124.965 main 309 294 PPPP__________ WP171994 19.4849 124.977 XX 137 -5 19.5499 124.942 5 97 927 9 135 135 4 350 270 19.4924 125.057 5 97 935 19.5424 124.885 SuperT 97 937 12 318
1994211N12152 1994 58 WP MM DOUG 1994-08-06 18:00:00 TS 19.9750 124.550 95 930 tokyo main 300 290 OOOO__________ jtwc_wp WP171994 20.0000 124.600 XX 135 -5 20.0000 124.500 5 95 930 9 130 130 3 350 270 0 19.9000 124.600 5 97 935 20.0000 124.500 ST 95 940 12 319
1994211N12152 1994 58 WP MM DOUG 1994-08-06 21:00:00 TS 20.4361 124.128 main 292 292 PPPP__________ WP171994 20.4850 124.227 XX 132 -5 20.4194 124.052 5 95 932 9 130 115 3 325 255 20.3627 124.105 5 97 935 20.4775 124.127 ST 95 940 12 323
1994211N12152 1994 58 WP MM DOUG 1994-08-07 00:00:00 TS 20.9500 123.775 95 935 tokyo main 316 282 OOOO__________ jtwc_wp WP171994 21.0000 123.900 XX 130 -5 20.9000 123.700 5 95 935 3 130 100 3 300 240 0 20.9000 123.700 5 97 935 21.0000 123.800 ST 95 940 12 334
1994211N12152 1994 58 WP MM DOUG 1994-08-07 03:00:00 TS 21.5455 123.545 95 935 tokyo main 272 228 POPP__________ WP171994 21.5924 123.635 XX 127 -5 21.5000 123.500 5 95 935 3 130 100 3 300 240 0 21.5197 123.519 5 97 937 21.5699 123.527 ST 95 940 13 342
1994211N12152 1994 58 WP MM DOUG 1994-08-07 06:00:00 TS 22.2000 123.350 95 935 tokyo main 228 185 OOOO__________ jtwc_wp WP171994 22.2000 123.400 XX 125 -5 22.2000 123.300 5 95 935 3 130 100 3 300 240 0 22.2000 123.400 5 97 940 22.2000 123.300 ST 95 940 14 344
1994211N12152 1994 58 WP MM DOUG 1994-08-07 09:00:00 TS 22.8912 123.140 95 935 tokyo main 175 144 POPP__________ WP171994 22.7575 123.150 XX 125 -5 23.0000 123.100 5 95 935 3 130 100 3 300 240 0 22.9073 123.195 5 97 942 22.8998 123.115 ST 95 940 14 342
1994211N12152 1994 58 WP MM DOUG 1994-08-07 12:00:00 TS 23.5250 122.875 95 935 tokyo main 144 83 OOOO__________ jtwc_wp WP171994 23.3000 122.900 XX 125 -5 23.6000 122.800 5 95 935 3 130 100 3 300 240 0 23.6000 122.900 5 97 945 23.6000 122.900 ST 95 940 14 337
1994211N12152 1994 58 WP MM DOUG 1994-08-07 15:00:00 TS 24.1833 122.532 95 935 tokyo main 69 32 POPP__________ WP171994 23.8500 122.635 XX 125 -5 24.4000 122.500 5 95 935 3 130 100 3 300 240 0 24.2453 122.443 5 97 945 24.2377 122.550 ST 90 942 13 331
1994211N12152 1994 58 WP MM DOUG 1994-08-07 18:00:00 TS 24.7000 122.175 90 940 tokyo main 37 0 OOOO__________ jtwc_wp WP171994 24.4000 122.400 XX 125 -5 24.8000 122.100 5 90 940 3 130 100 3 300 240 0 24.8000 122.000 5 97 945 24.8000 122.200 ST 85 945 11 333
1994211N12152 1994 58 WP MM DOUG 1994-08-07 21:00:00 TS 25.1418 121.984 85 945 tokyo main 11 11 POPP__________ WP171994 24.9574 122.235 XX 120 -5 25.1000 122.000 5 85 945 3 130 100 3 300 240 0 25.2223 121.739 5 87 952 25.2874 121.962 ST 82 947 10 341
1994211N12152 1994 58 WP MM DOUG 1994-08-08 00:00:00 TS 25.6000 121.825 85 950 tokyo main 48 48 OOOO__________ jtwc_wp WP171994 25.5000 122.100 XX 115 -5 25.6000 121.800 5 85 950 3 120 90 3 300 240 0 25.6000 121.600 4 77 960 25.7000 121.800 T 80 950 9 343
1994211N12152 1994 58 WP MM DOUG 1994-08-08 03:00:00 TS 26.0287 121.691 85 950 tokyo main 89 89 POPP__________ WP171994 26.0075 121.913 XX 107 -5 26.0000 121.700 5 85 950 3 120 90 3 300 240 0 26.0424 121.498 4 77 960 26.0650 121.655 T 77 952 9 350
1994211N12152 1994 58 WP MM DOUG 1994-08-08 06:00:00 TS 26.5000 121.650 80 955 tokyo main 142 119 OOOO__________ jtwc_wp WP171994 26.5000 121.800 XX 100 -5 26.6000 121.700 5 80 955 3 110 80 3 300 200 0 26.5000 121.500 4 77 960 26.4000 121.600 T 75 955 9 0
1994211N12152 1994 58 WP MM DOUG 1994-08-08 09:00:00 TS 26.9119 121.717 main 119 107 PPPP__________ WP171994 27.0075 121.847 XX 92 -5 26.9477 121.759 5 77 957 3 105 75 3 275 175 26.9575 121.620 4 77 960 26.7349 121.640 T 72 957 8 14
1994211N12152 1994 58 WP MM DOUG 1994-08-08 12:00:00 TS 27.3000 121.875 75 960 tokyo main 107 83 OOOO__________ jtwc_wp WP171994 27.5000 122.000 XX 85 -5 27.2000 121.900 5 75 960 3 100 70 3 250 150 0 27.4000 121.800 4 77 960 27.1000 121.800 T 70 960 9 22
1994211N12152 1994 58 WP MM DOUG 1994-08-08 15:00:00 TS 27.7175 122.078 main 83 67 PPPP__________ WP171994 27.9650 122.185 XX 80 -5 27.5701 122.128 5 72 962 3 90 65 3 250 150 27.8074 121.935 4 72 965 27.5275 122.063 T 67 962 9 25
1994211N12152 1994 58 WP MM DOUG 1994-08-08 18:00:00 TS 28.1500 122.325 70 965 tokyo main 69 69 OOOO__________ jtwc_wp WP171994 28.4000 122.400 XX 75 -5 28.0000 122.400 5 70 965 3 80 60 3 250 150 0 28.2000 122.100 4 68 970 28.0000 122.400 T 65 965 10 27
1994211N12152 1994 58 WP MM DOUG 1994-08-08 21:00:00 TS 28.5813 122.586 main 88 75 PPPP__________ WP171994 28.8075 122.600 XX 70 -5 28.4700 122.658 5 67 967 3 75 55 3 250 150 28.5699 122.320 4 63 972 28.4776 122.765 T 62 967 10 27
1994211N12152 1994 58 WP MM DOUG 1994-08-09 00:00:00 TS 29.0500 122.850 65 970 tokyo main 87 87 OOOO__________ jtwc_wp WP171994 29.2000 122.800 XX 65 -5 29.0000 122.900 5 65 970 3 70 50 3 250 150 0 29.0000 122.600 3 58 975 29.0000 123.100 STS 60 970 11 24
1994211N12152 1994 58 WP MM DOUG 1994-08-09 03:00:00 TS 29.6038 123.113 main 115 115 PPPP__________ WP171994 29.5925 123.008 XX 65 -5 29.6150 123.130 5 62 972 3 65 45 3 245 145 29.6003 122.979 3 58 977 29.6074 123.338 STS 57 972 12 21
1994211N12152 1994 58 WP MM DOUG 1994-08-09 06:00:00 TS 30.1500 123.325 60 975 tokyo main 141 141 OOOO__________ jtwc_wp WP171994 30.0000 123.200 XX 65 -5 30.2000 123.300 4 60 975 3 60 40 3 240 140 0 30.2000 123.300 3 58 980 30.2000 123.500 STS 55 975 10 16
1994211N12152 1994 58 WP MM DOUG 1994-08-09 09:00:00 TS 30.5918 123.437 main 146 146 PPPP__________ WP171994 30.4500 123.365 XX 65 -5 30.6224 123.366 4 57 977 3 60 40 3 240 140 30.6223 123.388 3 58 980 30.6725 123.630 STS 55 975 9 10
1994211N12152 1994 58 WP MM DOUG 1994-08-09 12:00:00 TS 31.0000 123.500 55 980 tokyo main 152 152 OOOO__________ jtwc_wp WP171994 30.9000 123.500 XX 65 -5 31.0000 123.400 4 55 980 3 60 40 3 240 140 0 31.0000 123.400 3 58 980 31.1000 123.700 STS 55 975 9 8
1994211N12152 1994 58 WP MM DOUG 1994-08-09 15:00:00 TS 31.4375 123.579 main 164 160 PPPP__________ WP171994 31.3075 123.615 XX 65 -5 31.4425 123.492 4 52 982 3 3 240 140 31.4425 123.492 3 58 980 31.5575 123.715 STS 52 977 9 8
1994211N12152 1994 58 WP MM DOUG 1994-08-09 18:00:00 TS 31.8750 123.650 50 985 tokyo main 171 171 OOOO__________ jtwc_wp WP171994 31.7000 123.700 XX 65 -5 31.9000 123.600 4 50 985 0 3 240 140 0 31.9000 123.600 3 58 980 32.0000 123.700 STS 50 980 9 8
1994211N12152 1994 58 WP MM DOUG 1994-08-09 21:00:00 TS 32.3150 123.716 main 182 182 PPPP__________ WP171994 32.1075 123.758 XX 62 -5 32.3725 123.700 4 47 985 0 3 230 130 32.3725 123.700 3 53 982 32.4075 123.707 STS 47 982 9 7
1994211N12152 1994 58 WP MM DOUG 1994-08-10 00:00:00 TS 32.7250 123.775 45 985 tokyo main 210 210 OOOO__________ jtwc_wp WP171994 32.5000 123.800 XX 60 -5 32.8000 123.800 3 45 985 0 3 220 120 0 32.8000 123.800 3 48 985 32.8000 123.700 TS 45 985 8 5
1994211N12152 1994 58 WP MM DOUG 1994-08-10 03:00:00 TS 33.0981 123.803 main 223 213 PPPP__________ WP171994 32.8725 123.843 XX 57 -5 33.1449 123.878 3 45 985 0 3 200 120 33.1449 123.878 3 48 985 33.2299 123.613 TS 45 985 7 7
1994211N12152 1994 58 WP MM DOUG 1994-08-10 06:00:00 TS 33.4000 123.875 45 985 tokyo main 213 205 OOOO__________ jtwc_wp WP171994 33.2000 123.900 55 -1 33.4000 124.000 3 45 985 0 3 180 120 0 33.4000 124.000 3 48 985 33.6000 123.600 TS 45 985 6 22
1994211N12152 1994 58 WP MM DOUG 1994-08-10 09:00:00 TS 33.6231 124.056 main 197 184 PPPP__________ WP171994 33.4799 123.970 52 -1 33.5801 124.228 3 45 985 0 3 165 135 33.5801 124.228 3 48 985 33.8525 123.797 TS 45 985 5 43
1994211N12152 1994 58 WP MM DOUG 1994-08-10 12:00:00 TS 33.7750 124.300 45 985 tokyo main 184 170 OOOO__________ jtwc_wp WP171994 33.7000 124.100 50 -1 33.7000 124.500 3 45 985 0 9 150 150 0 33.7000 124.500 3 48 985 34.0000 124.100 TS 45 985 5 57
1994211N12152 1994 58 WP MM DOUG 1994-08-10 15:00:00 TS 33.8938 124.563 main 162 149 PPPP__________ WP171994 33.8726 124.335 50 -1 33.8150 124.758 3 45 985 0 9 150 150 33.8150 124.758 3 43 987 34.0725 124.400 TS 45 985 5 65
1994211N12152 1994 58 WP MM DOUG 1994-08-10 18:00:00 TS 33.9750 124.825 45 985 tokyo main 149 132 OOOO__________ jtwc_wp WP171994 34.0000 124.600 50 -1 33.9000 125.000 3 45 985 0 9 150 150 0 33.9000 125.000 2 38 990 34.1000 124.700 TS 45 985 4 69
1994211N12152 1994 58 WP MM DOUG 1994-08-10 21:00:00 TS 34.0506 125.053 main 123 115 PPPP__________ WP171994 34.1150 124.815 47 -1 33.9650 125.215 3 42 987 0 9 135 135 33.9650 125.215 2 38 990 34.1574 124.965 TS 45 985 4 70
1994211N12152 1994 58 WP MM DOUG 1994-08-11 00:00:00 TS 34.1000 125.250 40 990 tokyo main 107 99 OOOO__________ jtwc_wp WP171994 34.2000 125.000 45 -1 34.0000 125.400 3 40 990 0 9 120 120 0 34.0000 125.400 2 38 990 34.2000 125.200 TS 45 985 3 77
1994211N12152 1994 58 WP MM DOUG 1994-08-11 03:00:00 TS 34.1275 125.448 main 99 84 PPPP__________ WP171994 34.2650 125.165 45 -1 34.0150 125.603 3 40 990 0 9 120 120 34.0150 125.603 2 38 991 34.2150 125.423 TS 42 987 3 85
1994211N12152 1994 58 WP MM DOUG 1994-08-11 06:00:00 TS 34.1250 125.575 40 990 tokyo main 84 84 OOOO__________ jtwc_wp WP171994 34.3000 125.300 45 -1 34.0000 125.700 3 40 990 0 9 120 120 0 34.0000 125.700 2 38 992 34.2000 125.600 TS 40 990 1 108
1994211N12152 1994 58 WP MM DOUG 1994-08-11 09:00:00 TS 34.0875 125.601 main 84 84 PPPP__________ WP171994 34.3150 125.438 42 -1 33.9425 125.602 3 40 991 0 9 120 120 33.9350 125.602 2 38 992 34.1574 125.760 TS 40 990 1 212
1994211N12152 1994 58 WP MM DOUG 1994-08-11 12:00:00 TS 34.0500 125.525 40 992 tokyo main 92 92 OOOO__________ jtwc_wp WP171994 34.3000 125.500 40 -1 33.9000 125.400 3 40 992 0 9 120 120 0 33.9000 125.400 2 38 992 34.1000 125.800 TS 40 990 2 263
1994211N12152 1994 58 WP MM DOUG 1994-08-11 15:00:00 TS 34.0662 125.393 main 99 99 PPPP__________ WP171994 34.2648 125.468 40 -1 33.9499 125.223 3 40 992 0 9 120 120 33.9999 125.223 2 38 992 34.0500 125.660 TS 37 992 3 275
1994211N12152 1994 58 WP MM DOUG 1994-08-11 18:00:00 TS 34.0750 125.175 40 992 tokyo main 115 115 OOOO__________ jtwc_wp WP171994 34.2000 125.300 40 -1 34.0000 125.000 3 40 992 0 9 120 120 0 34.1000 125.000 2 38 992 34.0000 125.400 TS 35 994 4 267
1994211N12152 1994 58 WP MM DOUG 1994-08-11 21:00:00 TS 34.0441 124.913 main 140 140 PPPP__________ WP171994 34.1298 125.018 37 -1 33.9872 124.753 3 37 993 0 9 110 110 34.0875 124.723 2 38 992 33.9721 125.160 TS 32 995 5 257
1994211N12152 1994 58 WP MM DOUG 1994-08-12 00:00:00 TS 33.9533 124.533 35 994 tokyo main 175 170 OOOO__________ jtwc_wp WP171994 34.0000 124.600 35 -1 33.9000 124.400 3 35 994 0 9 100 100 0 34.0000 124.400 2 38 992 33.9000 124.800 TD 30 996 7 251
1994211N12152 1994 58 WP MM DOUG 1994-08-12 03:00:00 TS 33.7999 124.067 main 202 202 PPPP__________ WP171994 33.7800 124.087 35 -1 33.7376 123.895 3 35 994 0 9 100 100 33.9166 124.126 2 38 993 33.7310 124.254 TD 27 998 9 245
1994211N12152 1994 58 WP MM DOUG 1994-08-12 06:00:00 TS 33.5615 123.508 35 994 tokyo main 236 165 OOOO__________ jtwc_wp WP171994 33.5000 123.500 35 -1 33.5000 123.300 3 35 994 0 9 100 100 0 33.7000 123.700 2 38 995 33.5000 123.600 TD 25 1000 12 240
1994211N12152 1994 58 WP MM DOUG 1994-08-12 09:00:00 TS 33.2103 122.845 main 158 93 PPP___________ WP171994 33.2073 122.908 32 -1 33.2149 122.700 3 995 0 9 33.2087 122.927 2 33 996 TD 13 237
1994211N12152 1994 58 WP MM DOUG 1994-08-12 12:00:00 TS 32.8333 122.167 996 tokyo main 87 29 OOO___________ jtwc_wp WP171994 32.9000 122.300 30 -1 32.9000 122.100 2 996 0 0 0 32.7000 122.100 1 29 998 12 238
1994211N12152 1994 58 WP MM DOUG 1994-08-12 15:00:00 TS 32.5562 121.586 main 29 0 PPP___________ WP171994 32.5997 121.700 30 -1 32.5997 121.543 2 997 0 0 32.4692 121.514 1 29 999 11 241
1994211N12152 1994 58 WP MM DOUG 1994-08-12 18:00:00 TS 32.3000 121.040 998 tokyo main 0 0 OOO___________ jtwc_wp WP171994 32.3000 121.100 30 -1 32.3000 121.000 2 998 0 0 0 32.3000 121.000 1 29 1000 11 240
1994211N12152 1994 58 WP MM DOUG 1994-08-12 21:00:00 TS 32.0090 120.475 main 11 0 PPP___________ WP171994 31.9998 120.493 27 -1 32.0005 120.452 2 999 0 0 32.0358 120.461 1 29 1000 11 238
1994211N12152 1994 58 WP MM DOUG 1994-08-13 00:00:00 TS 31.7000 119.900 1000 tokyo main 0 0 OOO___________ jtwc_wp WP171994 31.7000 119.900 25 -1 31.7000 119.900 2 1000 0 0 0 31.7000 119.900 1 29 1000 11 238
1994211N12152 1994 58 WP MM DOUG 1994-08-13 03:00:00 NR 31.4004 119.339 main 0 0 P_____________ WP171994 31.4004 119.339 20 -1 2 0 0 1 11 237
1994211N12152 1994 58 WP MM DOUG 1994-08-13 06:00:00 NR 31.1000 118.800 main 0 O_____________ jtwc_wp WP171994 31.1000 118.800 15 -1 11 237

Digital Typhoon Data and Search

About IBTrACS Database

This database is a web-friendly format of International Best Track Archive for Climate Stewardship (IBTrACS), a global best track data archive curated by NOAA dating back to 1842.

Updated: 2021-12-01